Etusivu
METAR-TAF:

METAR-TAF

Lentoasemat :

John H. Batten Airport

Racine, Wisconsin, Yhdysvallat

Leveyspiiri: 42-45-31N, Pituuspiiri: 087-49-04W, korkeus merenpinnasta: 205 m

Tämänhetkinen sää

Tämä raportti tehtiin 12 minuuttia sitten, kello 05.53 UTC
Tuuli 5 kn lounaasta
Lämpötila 22°C
Kosteus 78%
Ilmanpaine 1016 hPa
Näkyvyys: 16.1 km
selkeää

METAR: KRAC 260553Z AUTO 22005KT 10SM CLR 22/18 A3001 RMK AO2 SLP157 T02220178 10244 20194 402890150 51005

Aika: 01:05 (06:05 UTC)


TAF: puuttuu

Säähavainnot ja -ennusteet yli 4000 lentoasemalta (METAR- ja TAF-raportit).

Käytössä olevat sääasemat on merkitty karttaan keltaisilla ja punaisilla pisteillä.

Aseta hiiri pisteen päälle nähdäksesi sääaseman nimen.

Klikkaa sitten nähdäksesi säähavainnot ja -ennusteet.

Kartan vaihtaminen: klikkaa mustalla rastilla varustettuja vihreitä pisteitä, niin voit zoomata sisään; viivalla varustettua vihreää pistettä, niin voit zoomata ulos tai vihreitä nuolia, niin pääset viereisille kartoille.


METAR-TAF: